KHEY/HEY METAR and TAF weather

Enter ICAO airport designator
Station Type Date Time Source
KHEY METAR 2024/07/13 03:55 UTC NOAA

KHEY 130355Z AUTO 00000KT 10SM CLR 26/23 A3009 RMK AO2 SLP188 T02580225


Station Type Date Time Source
KHEY Decoded METAR 2024/07/13 03:55 UTC NOAA

Hanchey AHP / Ozark, AL, United States (KHEY) 31-21N 085-40W
Jul 12, 2024 - 11:55 PM EDT / 2024.07.13 0355 UTC
Wind: Calm:0
Visibility: 10 mile(s):0
Sky conditions: clear
Temperature: 78.4 F (25.8 C)
Dew Point: 72.5 F (22.5 C)
Relative Humidity: 82%
Pressure (altimeter): 30.09 in. Hg (1018 hPa)
ob: KHEY 130355Z AUTO 00000KT 10SM CLR 26/23 A3009 RMK AO2 SLP188 T02580225
cycle: 4

Station Type Date Time Source
KHEY TAF UTC NOAA

Error!

Example: see airport list